Time;durP1;ratioP1;P1;durP2;ratioP2;P2;SDS_P1;SDS_P2;PMS_P1;PMS_P2;Temp;Humidity;BMP_temperature;BMP_pressure;BME280_temperature;BME280_humidity;BME280_pressure;Samples;Min_cycle;Max_cycle;Signal;HPM_P1;HPM_P2
2023/07/22 00:02:14;;;;;;;6.40;5.22;;;;;;;;;;5116976;28;20087;-81
2023/07/22 00:04:40;;;;;;;5.78;5.18;;;;;;;;;;5115898;28;20481;-81
2023/07/22 00:07:06;;;;;;;8.15;5.55;;;;;;;;;;5116148;28;20093;-81
2023/07/22 00:09:35;;;;;;;6.18;5.55;;;;;;;;;;5116696;28;20043;-80
2023/07/22 00:12:01;;;;;;;7.40;5.32;;;;;;;;;;5115983;28;20419;-81
2023/07/22 00:14:27;;;;;;;6.25;4.95;;;;;;;;;;5116547;28;20047;-81
2023/07/22 00:16:53;;;;;;;8.57;5.38;;;;;;;;;;5116541;28;20050;-81
2023/07/22 00:19:19;;;;;;;8.50;5.50;;;;;;;;;;5098812;28;20111;-81
2023/07/22 00:21:45;;;;;;;6.63;5.22;;;;;;;;;;5115343;28;20043;-81
2023/07/22 00:24:11;;;;;;;8.32;4.80;;;;;;;;;;5115516;28;20441;-81
2023/07/22 00:26:37;;;;;;;9.23;5.28;;;;;;;;;;5115572;28;20062;-81
2023/07/22 00:29:04;;;;;;;6.18;4.85;;;;;;;;;;5114919;28;20579;-81
2023/07/22 00:31:31;;;;;;;6.18;5.13;;;;;;;;;;5115356;28;20093;-81
2023/07/22 00:33:57;;;;;;;7.85;5.65;;;;;;;;;;5098357;28;20132;-81
2023/07/22 00:36:23;;;;;;;8.35;4.82;;;;;;;;;;5116302;28;20122;-81
2023/07/22 00:38:49;;;;;;;9.98;4.72;;;;;;;;;;5115277;28;20055;-81
2023/07/22 00:41:15;;;;;;;8.30;5.15;;;;;;;;;;5115042;28;20079;-81
2023/07/22 00:43:41;;;;;;;7.35;5.60;;;;;;;;;;5115107;28;20043;-81
2023/07/22 00:46:07;;;;;;;6.65;5.07;;;;;;;;;;5114941;28;20040;-81
2023/07/22 00:48:33;;;;;;;11.23;6.35;;;;;;;;;;5081357;28;20079;-81
2023/07/22 00:50:59;;;;;;;11.23;6.18;;;;;;;;;;5114744;28;20504;-81
2023/07/22 00:53:25;;;;;;;7.03;5.80;;;;;;;;;;5114775;28;20052;-81
2023/07/22 00:55:52;;;;;;;11.73;6.55;;;;;;;;;;5114890;28;20507;-81
2023/07/22 00:58:18;;;;;;;7.85;6.00;;;;;;;;;;5115666;28;20054;-81
2023/07/22 01:00:44;;;;;;;6.57;5.50;;;;;;;;;;5114860;28;20051;-81
2023/07/22 01:03:10;;;;;;;7.60;5.75;;;;;;;;;;5114535;28;20043;-80
2023/07/22 01:05:39;;;;;;;9.77;6.03;;;;;;;;;;5114449;28;20047;-81
2023/07/22 01:08:06;;;;;;;9.63;6.25;;;;;;;;;;5115592;28;20508;-82
2023/07/22 01:10:32;;;;;;;8.15;5.72;;;;;;;;;;5114661;28;20048;-81
2023/07/22 01:12:58;;;;;;;12.05;7.30;;;;;;;;;;5097006;28;20047;-81
2023/07/22 01:15:25;;;;;;;9.80;6.70;;;;;;;;;;5115509;28;20437;-81
2023/07/22 01:17:52;;;;;;;8.02;7.18;;;;;;;;;;5115394;28;20044;-81
2023/07/22 01:20:19;;;;;;;8.88;6.18;;;;;;;;;;5097672;28;20066;-81
2023/07/22 01:22:52;;;;;;;10.95;7.03;;;;;;;;;;5114984;28;20085;-81
2023/07/22 01:25:21;;;;;;;7.57;6.38;;;;;;;;;;5115092;28;20477;-81
2023/07/22 01:27:47;;;;;;;8.48;6.95;;;;;;;;;;5115337;28;20047;-81
2023/07/22 01:30:14;;;;;;;8.43;6.50;;;;;;;;;;5113960;28;20089;-81
2023/07/22 01:32:40;;;;;;;9.60;7.50;;;;;;;;;;5113868;28;20051;-82
2023/07/22 01:35:07;;;;;;;11.30;7.18;;;;;;;;;;5115095;28;20054;-81
2023/07/22 01:37:34;;;;;;;8.35;6.93;;;;;;;;;;5114075;28;20126;-81
2023/07/22 01:40:00;;;;;;;8.85;6.60;;;;;;;;;;5114032;28;20051;-81
2023/07/22 01:42:26;;;;;;;10.48;7.22;;;;;;;;;;5096853;28;20043;-81
2023/07/22 01:44:53;;;;;;;11.23;8.07;;;;;;;;;;5115025;28;20047;-81
2023/07/22 01:47:19;;;;;;;10.65;6.93;;;;;;;;;;5113672;28;20434;-81
2023/07/22 01:49:45;;;;;;;12.18;7.60;;;;;;;;;;5114699;28;20394;-81
2023/07/22 01:52:11;;;;;;;9.43;7.40;;;;;;;;;;5096712;28;20134;-81
2023/07/22 01:54:37;;;;;;;11.13;7.15;;;;;;;;;;5114677;28;20056;-81
2023/07/22 01:57:04;;;;;;;11.60;7.80;;;;;;;;;;5114582;28;20044;-81
2023/07/22 01:59:30;;;;;;;12.70;7.72;;;;;;;;;;5113492;28;20397;-81
2023/07/22 02:01:56;;;;;;;9.57;7.50;;;;;;;;;;5113374;28;20135;-81
2023/07/22 02:04:22;;;;;;;10.38;7.55;;;;;;;;;;5113596;28;20047;-81
2023/07/22 02:06:48;;;;;;;11.00;8.35;;;;;;;;;;5114477;28;20485;-81
2023/07/22 02:09:14;;;;;;;11.50;8.00;;;;;;;;;;5113460;28;20082;-81
2023/07/22 02:11:40;;;;;;;11.82;8.05;;;;;;;;;;5114522;28;20040;-81
2023/07/22 02:14:06;;;;;;;11.85;9.20;;;;;;;;;;5112860;28;20075;-81
2023/07/22 02:16:39;;;;;;;11.15;7.35;;;;;;;;;;5113480;28;20090;-81
2023/07/22 02:19:05;;;;;;;14.30;7.93;;;;;;;;;;5112821;28;20047;-81
2023/07/22 02:21:31;;;;;;;12.18;8.25;;;;;;;;;;5096402;28;20056;-81
2023/07/22 02:23:57;;;;;;;10.80;7.57;;;;;;;;;;5113944;28;20055;-81
2023/07/22 02:26:23;;;;;;;13.27;8.68;;;;;;;;;;5114333;28;20051;-80
2023/07/22 02:28:50;;;;;;;10.25;8.15;;;;;;;;;;5112996;28;20131;-81
2023/07/22 02:31:16;;;;;;;9.10;7.60;;;;;;;;;;5113245;28;20097;-81
2023/07/22 02:33:42;;;;;;;10.73;7.38;;;;;;;;;;5112736;28;20044;-80
2023/07/22 02:36:08;;;;;;;10.38;7.90;;;;;;;;;;5113060;28;20082;-81
2023/07/22 02:38:34;;;;;;;9.32;7.13;;;;;;;;;;5114135;28;20046;-81
2023/07/22 02:41:06;;;;;;;10.65;7.18;;;;;;;;;;5113071;28;20089;-81
2023/07/22 02:43:32;;;;;;;12.20;7.90;;;;;;;;;;5112950;28;20051;-81
2023/07/22 02:46:00;;;;;;;9.93;7.00;;;;;;;;;;5113057;28;20040;-80
2023/07/22 02:48:26;;;;;;;9.18;6.68;;;;;;;;;;5113816;28;20483;-80
2023/07/22 02:50:52;;;;;;;11.07;7.20;;;;;;;;;;5112751;28;20203;-81
2023/07/22 02:53:19;;;;;;;11.02;7.07;;;;;;;;;;5096167;28;20051;-81
2023/07/22 02:55:46;;;;;;;9.02;7.43;;;;;;;;;;5112680;28;20056;-81
2023/07/22 02:58:12;;;;;;;9.27;6.95;;;;;;;;;;5112624;28;20508;-81
2023/07/22 03:00:38;;;;;;;7.78;6.93;;;;;;;;;;5112881;28;20051;-81
2023/07/22 03:03:05;;;;;;;11.32;8.70;;;;;;;;;;5113850;28;20130;-81
2023/07/22 03:05:32;;;;;;;11.32;8.50;;;;;;;;;;5095813;28;20096;-80
2023/07/22 03:07:58;;;;;;;12.18;7.82;;;;;;;;;;5114613;28;20097;-80
2023/07/22 03:10:25;;;;;;;9.10;7.78;;;;;;;;;;5113140;28;20047;-81
2023/07/22 03:12:54;;;;;;;10.93;8.40;;;;;;;;;;5112500;28;20040;-81
2023/07/22 03:15:21;;;;;;;8.65;6.90;;;;;;;;;;5113591;28;20051;-81
2023/07/22 03:17:47;;;;;;;8.57;7.68;;;;;;;;;;5096612;28;20053;-81
2023/07/22 03:20:19;;;;;;;12.77;8.32;;;;;;;;;;5095844;28;20481;-81
2023/07/22 03:22:46;;;;;;;9.40;7.95;;;;;;;;;;5112467;28;20462;-81
2023/07/22 03:25:12;;;;;;;9.73;8.02;;;;;;;;;;5096014;28;20047;-81
2023/07/22 03:27:39;;;;;;;9.15;7.68;;;;;;;;;;5113258;28;20485;-81
2023/07/22 03:30:10;;;;;;;9.43;7.45;;;;;;;;;;5112588;28;20051;-81
2023/07/22 03:32:36;;;;;;;9.18;7.72;;;;;;;;;;5095590;28;20047;-81
2023/07/22 03:35:03;;;;;;;12.68;8.60;;;;;;;;;;5112787;28;20047;-81
2023/07/22 03:37:29;;;;;;;12.25;8.52;;;;;;;;;;5113410;28;20381;-81
2023/07/22 03:39:56;;;;;;;9.98;8.60;;;;;;;;;;5095701;28;20130;-81
2023/07/22 03:42:22;;;;;;;10.60;8.30;;;;;;;;;;5113434;28;20051;-81
2023/07/22 03:44:48;;;;;;;9.90;7.63;;;;;;;;;;5112272;28;20079;-81
2023/07/22 03:47:14;;;;;;;11.35;8.32;;;;;;;;;;5116814;28;20070;-81
2023/07/22 03:49:40;;;;;;;10.68;9.05;;;;;;;;;;5115785;28;20063;-82
2023/07/22 03:52:07;;;;;;;11.82;9.07;;;;;;;;;;5117126;28;20044;-81
2023/07/22 03:54:33;;;;;;;12.90;9.27;;;;;;;;;;5116729;28;20044;-81
2023/07/22 03:57:00;;;;;;;10.80;8.68;;;;;;;;;;5099075;28;20105;-81
2023/07/22 03:59:28;;;;;;;11.32;8.63;;;;;;;;;;5115966;28;20059;-81
2023/07/22 04:01:54;;;;;;;10.50;8.48;;;;;;;;;;5115963;28;20126;-81
2023/07/22 04:04:20;;;;;;;10.55;7.88;;;;;;;;;;5116893;28;20477;-80
2023/07/22 04:06:46;;;;;;;9.43;8.30;;;;;;;;;;5115835;28;20047;-81
2023/07/22 04:09:12;;;;;;;10.50;8.43;;;;;;;;;;5116593;28;20116;-81
2023/07/22 04:11:38;;;;;;;11.23;7.60;;;;;;;;;;5115637;28;20039;-81
2023/07/22 04:14:04;;;;;;;10.77;8.23;;;;;;;;;;5115360;28;20554;-81
2023/07/22 04:16:31;;;;;;;8.70;7.80;;;;;;;;;;5115731;28;20047;-81
2023/07/22 04:18:57;;;;;;;9.77;8.13;;;;;;;;;;5115366;28;20047;-80
2023/07/22 04:21:23;;;;;;;9.50;7.78;;;;;;;;;;5115560;28;20130;-81
2023/07/22 04:23:49;;;;;;;9.38;7.63;;;;;;;;;;5114842;28;20062;-81
2023/07/22 04:26:15;;;;;;;9.65;8.30;;;;;;;;;;5098922;28;20122;-81
2023/07/22 04:28:41;;;;;;;9.10;7.38;;;;;;;;;;5098870;28;20051;-81
2023/07/22 04:31:09;;;;;;;11.93;9.18;;;;;;;;;;5115018;28;20079;-81
2023/07/22 04:33:35;;;;;;;10.05;8.18;;;;;;;;;;5115307;28;20433;-81
2023/07/22 04:36:01;;;;;;;10.70;7.85;;;;;;;;;;5115629;28;20043;-81
2023/07/22 04:38:28;;;;;;;10.27;8.02;;;;;;;;;;5115065;28;20446;-81
2023/07/22 04:40:54;;;;;;;8.70;7.90;;;;;;;;;;5116014;28;20050;-81
2023/07/22 04:43:20;;;;;;;9.98;8.55;;;;;;;;;;5098484;28;20047;-81
2023/07/22 04:45:49;;;;;;;9.23;8.32;;;;;;;;;;5115088;28;20134;-81
2023/07/22 04:48:20;;;;;;;9.57;7.95;;;;;;;;;;5098234;28;20040;-81
2023/07/22 04:50:46;;;;;;;11.18;8.50;;;;;;;;;;5114733;28;20100;-81
2023/07/22 04:53:13;;;;;;;9.43;8.05;;;;;;;;;;5114757;28;20409;-80
2023/07/22 04:55:40;;;;;;;13.13;8.82;;;;;;;;;;5114889;28;20082;-81
2023/07/22 04:58:06;;;;;;;10.00;8.60;;;;;;;;;;5114682;28;20119;-81
2023/07/22 05:00:33;;;;;;;12.05;8.65;;;;;;;;;;5115404;28;20358;-81
2023/07/22 05:02:59;;;;;;;9.18;8.27;;;;;;;;;;5115722;28;20176;-81
2023/07/22 05:05:25;;;;;;;12.93;8.90;;;;;;;;;;5097936;28;20043;-81
2023/07/22 05:07:52;;;;;;;10.43;8.57;;;;;;;;;;5114961;28;20506;-81
2023/07/22 05:10:19;;;;;;;11.13;9.38;;;;;;;;;;5114441;28;20130;-81
2023/07/22 05:12:45;;;;;;;11.85;10.13;;;;;;;;;;5114570;28;20052;-81
2023/07/22 05:15:12;;;;;;;11.40;10.15;;;;;;;;;;5114569;28;20055;-81
2023/07/22 05:17:38;;;;;;;11.63;9.25;;;;;;;;;;5114483;28;20480;-81
2023/07/22 05:20:06;;;;;;;12.13;8.73;;;;;;;;;;5097465;28;20100;-80
2023/07/22 05:22:32;;;;;;;12.40;9.57;;;;;;;;;;5114424;28;20094;-80
2023/07/22 05:24:59;;;;;;;13.15;9.77;;;;;;;;;;5114798;28;20056;-80
2023/07/22 05:27:25;;;;;;;14.63;10.13;;;;;;;;;;5114665;28;20040;-80
2023/07/22 05:29:51;;;;;;;12.20;10.35;;;;;;;;;;5114146;28;20044;-80
2023/07/22 05:32:17;;;;;;;14.65;10.90;;;;;;;;;;5115138;28;20091;-80
2023/07/22 05:34:43;;;;;;;11.90;10.70;;;;;;;;;;5114104;28;20039;-80
2023/07/22 05:37:10;;;;;;;12.50;11.10;;;;;;;;;;5113797;28;20043;-80
2023/07/22 05:39:36;;;;;;;12.35;11.05;;;;;;;;;;5113980;28;20046;-80
2023/07/22 05:42:02;;;;;;;13.48;11.15;;;;;;;;;;5079941;28;20044;-81
2023/07/22 05:44:28;;;;;;;12.05;10.75;;;;;;;;;;5113965;28;20410;-80
2023/07/22 05:46:55;;;;;;;11.68;10.40;;;;;;;;;;5115742;28;20043;-80
2023/07/22 05:49:21;;;;;;;14.07;11.45;;;;;;;;;;5097389;28;20043;-80
2023/07/22 05:51:47;;;;;;;17.40;12.57;;;;;;;;;;5114714;28;20587;-80
2023/07/22 05:54:13;;;;;;;15.90;11.93;;;;;;;;;;5114789;28;20083;-80
2023/07/22 05:56:41;;;;;;;14.10;12.48;;;;;;;;;;5097353;28;20132;-80
2023/07/22 05:59:07;;;;;;;14.10;11.68;;;;;;;;;;5113749;28;20062;-80
2023/07/22 06:01:34;;;;;;;17.20;12.95;;;;;;;;;;5096784;28;20400;-80
2023/07/22 06:04:00;;;;;;;16.30;12.82;;;;;;;;;;5114017;28;20051;-80
2023/07/22 06:06:27;;;;;;;14.52;12.00;;;;;;;;;;5113681;28;20051;-80
2023/07/22 06:08:53;;;;;;;17.77;13.32;;;;;;;;;;5113394;28;20051;-80
2023/07/22 06:11:19;;;;;;;19.08;13.48;;;;;;;;;;5113219;28;20087;-81
2023/07/22 06:13:46;;;;;;;16.50;13.02;;;;;;;;;;5113571;28;20358;-80
2023/07/22 06:16:12;;;;;;;17.10;13.48;;;;;;;;;;5113736;28;20104;-80
2023/07/22 06:18:38;;;;;;;17.45;13.23;;;;;;;;;;5113470;28;20047;-80
2023/07/22 06:21:04;;;;;;;17.70;13.98;;;;;;;;;;5113656;28;20107;-81
2023/07/22 06:23:30;;;;;;;16.65;13.35;;;;;;;;;;5113848;28;20112;-81
2023/07/22 06:25:56;;;;;;;14.73;13.05;;;;;;;;;;5113192;28;20139;-81
2023/07/22 06:28:22;;;;;;;18.17;14.15;;;;;;;;;;5113225;28;20058;-81
2023/07/22 06:30:48;;;;;;;16.20;13.90;;;;;;;;;;5113067;28;20540;-81
2023/07/22 06:33:15;;;;;;;17.08;13.63;;;;;;;;;;5113101;28;20050;-80
2023/07/22 06:35:41;;;;;;;20.27;14.65;;;;;;;;;;5114295;28;20051;-80
2023/07/22 06:38:07;;;;;;;20.40;14.50;;;;;;;;;;5114164;28;20047;-80
2023/07/22 06:40:34;;;;;;;17.98;15.00;;;;;;;;;;5115278;28;20035;-80
2023/07/22 06:43:00;;;;;;;18.50;13.82;;;;;;;;;;5113060;28;20042;-80
2023/07/22 06:45:26;;;;;;;17.63;13.88;;;;;;;;;;5113484;28;20051;-80
2023/07/22 06:47:52;;;;;;;18.17;14.45;;;;;;;;;;5113064;28;20043;-80
2023/07/22 06:50:18;;;;;;;16.05;14.00;;;;;;;;;;5114564;28;20043;-80
2023/07/22 06:52:44;;;;;;;18.88;14.68;;;;;;;;;;5096485;28;20496;-81
2023/07/22 06:55:10;;;;;;;19.65;14.88;;;;;;;;;;5113076;28;20050;-81
2023/07/22 06:57:37;;;;;;;17.63;14.68;;;;;;;;;;5113998;28;20444;-81
2023/07/22 07:00:05;;;;;;;17.98;14.70;;;;;;;;;;5112552;28;20052;-81
2023/07/22 07:02:31;;;;;;;22.23;17.65;;;;;;;;;;5095990;28;20048;-81
2023/07/22 07:04:57;;;;;;;20.67;16.10;;;;;;;;;;5113839;28;20054;-81
2023/07/22 07:07:23;;;;;;;21.27;17.30;;;;;;;;;;5113346;28;20039;-82
2023/07/22 07:09:50;;;;;;;24.10;17.73;;;;;;;;;;5113836;28;20051;-82
2023/07/22 07:12:16;;;;;;;24.98;17.45;;;;;;;;;;5113155;28;20087;-80
2023/07/22 07:14:43;;;;;;;18.50;16.02;;;;;;;;;;5113892;28;20505;-81
2023/07/22 07:17:09;;;;;;;19.88;16.98;;;;;;;;;;5112768;28;20082;-81
2023/07/22 07:19:35;;;;;;;22.77;18.85;;;;;;;;;;5113793;28;20058;-81
2023/07/22 07:22:01;;;;;;;17.90;15.75;;;;;;;;;;5099462;28;20468;-80
2023/07/22 07:24:27;;;;;;;18.95;16.58;;;;;;;;;;5117897;28;20055;-81
2023/07/22 07:26:53;;;;;;;19.27;16.35;;;;;;;;;;5099765;28;20124;-81
2023/07/22 07:29:20;;;;;;;21.33;16.50;;;;;;;;;;5117295;28;22420;-82
2023/07/22 07:31:46;;;;;;;19.90;15.75;;;;;;;;;;5116632;28;20040;-82
2023/07/22 07:34:12;;;;;;;19.63;16.17;;;;;;;;;;5116134;28;20717;-82
2023/07/22 07:36:38;;;;;;;21.50;16.58;;;;;;;;;;5116838;28;20047;-82
2023/07/22 07:39:04;;;;;;;18.70;15.98;;;;;;;;;;5116586;28;20075;-81
2023/07/22 07:41:30;;;;;;;17.52;14.80;;;;;;;;;;5116358;28;20054;-82
2023/07/22 07:43:56;;;;;;;17.05;14.25;;;;;;;;;;5117171;28;20050;-81
2023/07/22 07:46:23;;;;;;;17.73;15.68;;;;;;;;;;5116680;28;20134;-82
2023/07/22 07:48:51;;;;;;;17.88;14.20;;;;;;;;;;5117348;28;20043;-81
2023/07/22 07:51:18;;;;;;;16.73;14.43;;;;;;;;;;5117721;28;20079;-81
2023/07/22 07:53:44;;;;;;;17.02;13.85;;;;;;;;;;5117049;28;20423;-81
2023/07/22 07:56:11;;;;;;;18.10;14.25;;;;;;;;;;5116234;28;20039;-81
2023/07/22 07:58:38;;;;;;;16.08;14.38;;;;;;;;;;5116218;28;20044;-82
2023/07/22 08:01:05;;;;;;;16.33;14.63;;;;;;;;;;5115945;28;20127;-82
2023/07/22 08:03:31;;;;;;;15.07;13.50;;;;;;;;;;5116331;28;20050;-82
2023/07/22 08:05:57;;;;;;;14.70;13.15;;;;;;;;;;5117024;28;20047;-81
2023/07/22 08:08:23;;;;;;;15.93;14.25;;;;;;;;;;5099980;28;20112;-81
2023/07/22 08:10:59;;;;;;;12.95;11.65;;;;;;;;;;5115637;28;20043;-81
2023/07/22 08:13:26;;;;;;;14.95;12.07;;;;;;;;;;5115859;28;20043;-81
2023/07/22 08:15:52;;;;;;;12.65;11.35;;;;;;;;;;5115654;28;20043;-82
2023/07/22 08:18:18;;;;;;;12.23;10.55;;;;;;;;;;5116767;28;20044;-81
2023/07/22 08:20:47;;;;;;;13.63;11.45;;;;;;;;;;5115563;28;20048;-81
2023/07/22 08:23:13;;;;;;;13.15;11.57;;;;;;;;;;5115875;28;20105;-81
2023/07/22 08:25:39;;;;;;;12.25;10.95;;;;;;;;;;5115365;28;20054;-81
2023/07/22 08:28:05;;;;;;;12.18;10.00;;;;;;;;;;5116546;28;20542;-81
2023/07/22 08:30:31;;;;;;;11.18;10.05;;;;;;;;;;5098500;28;20051;-81
2023/07/22 08:32:57;;;;;;;12.45;11.25;;;;;;;;;;5114832;28;20048;-81
2023/07/22 08:35:24;;;;;;;14.30;11.85;;;;;;;;;;5098439;28;20054;-81
2023/07/22 08:37:50;;;;;;;13.48;10.57;;;;;;;;;;5116399;28;20104;-81
2023/07/22 08:40:16;;;;;;;11.82;10.10;;;;;;;;;;5115423;28;20059;-81
2023/07/22 08:42:43;;;;;;;11.43;10.07;;;;;;;;;;5098388;28;20079;-81
2023/07/22 08:45:13;;;;;;;11.00;9.88;;;;;;;;;;5098286;28;20051;-81
2023/07/22 08:47:39;;;;;;;13.02;11.20;;;;;;;;;;5115567;28;20104;-81
2023/07/22 08:50:07;;;;;;;12.40;9.50;;;;;;;;;;5115018;28;20044;-81
2023/07/22 08:52:34;;;;;;;9.15;7.43;;;;;;;;;;5116611;28;20385;-81
2023/07/22 08:55:01;;;;;;;11.18;7.82;;;;;;;;;;5115037;28;20054;-81
2023/07/22 08:57:29;;;;;;;8.35;7.43;;;;;;;;;;5098014;28;20088;-83
2023/07/22 08:59:58;;;;;;;9.85;8.48;;;;;;;;;;5098800;28;20048;-81
2023/07/22 09:02:25;;;;;;;8.40;7.38;;;;;;;;;;5114648;28;20502;-81
2023/07/22 09:04:51;;;;;;;8.25;7.45;;;;;;;;;;5097609;28;20052;-81
2023/07/22 09:07:18;;;;;;;7.43;6.80;;;;;;;;;;5114859;28;20499;-81
2023/07/22 09:09:47;;;;;;;7.10;6.47;;;;;;;;;;5115661;28;20039;-81
2023/07/22 09:12:14;;;;;;;7.75;6.50;;;;;;;;;;5097408;28;20146;-81
2023/07/22 09:14:41;;;;;;;5.97;5.38;;;;;;;;;;5115656;28;20039;-81
2023/07/22 09:17:07;;;;;;;7.72;6.13;;;;;;;;;;5098617;28;20039;-81
2023/07/22 09:19:33;;;;;;;6.22;5.10;;;;;;;;;;5115468;28;20048;-81
2023/07/22 09:21:59;;;;;;;6.00;5.22;;;;;;;;;;5097949;28;20044;-81
2023/07/22 09:24:28;;;;;;;5.78;5.03;;;;;;;;;;5115845;28;20052;-81
2023/07/22 09:26:54;;;;;;;6.82;5.60;;;;;;;;;;5114451;28;20046;-82
2023/07/22 09:29:36;;;;;;;6.45;5.80;;;;;;;;;;5116021;28;20044;-82
2023/07/22 09:32:03;;;;;;;6.78;6.05;;;;;;;;;;5114475;28;20378;-82
2023/07/22 09:34:29;;;;;;;7.95;6.13;;;;;;;;;;5114499;28;20047;-83
2023/07/22 09:36:56;;;;;;;7.82;7.00;;;;;;;;;;5114233;28;20499;-83
2023/07/22 09:39:23;;;;;;;10.15;7.53;;;;;;;;;;5114227;28;20094;-83
2023/07/22 09:41:49;;;;;;;8.45;7.35;;;;;;;;;;5114173;28;20071;-83
2023/07/22 09:44:15;;;;;;;8.40;7.18;;;;;;;;;;5097045;28;20140;-83
2023/07/22 09:46:41;;;;;;;7.57;6.80;;;;;;;;;;5113768;28;20048;-82
2023/07/22 09:49:09;;;;;;;8.02;7.20;;;;;;;;;;5113943;28;20083;-82
2023/07/22 09:51:36;;;;;;;7.18;6.47;;;;;;;;;;5114233;28;20460;-82
2023/07/22 09:54:03;;;;;;;7.53;6.70;;;;;;;;;;5114193;28;20096;-82
2023/07/22 09:56:29;;;;;;;8.65;7.70;;;;;;;;;;5096884;28;20180;-82
2023/07/22 09:58:55;;;;;;;7.40;6.70;;;;;;;;;;5113856;28;20150;-81
2023/07/22 10:01:24;;;;;;;8.05;6.18;;;;;;;;;;5113734;28;20054;-82
2023/07/22 10:03:59;;;;;;;7.43;6.43;;;;;;;;;;5114502;28;20071;-81
2023/07/22 10:06:27;;;;;;;7.03;6.32;;;;;;;;;;5097283;28;20130;-81
2023/07/22 10:08:55;;;;;;;8.13;5.82;;;;;;;;;;5113819;28;20055;-81
2023/07/22 10:11:21;;;;;;;11.13;7.78;;;;;;;;;;5113344;28;20500;-81
2023/07/22 10:13:48;;;;;;;8.25;7.22;;;;;;;;;;5114501;28;20107;-82
2023/07/22 10:16:14;;;;;;;10.45;8.20;;;;;;;;;;5113831;28;20059;-81
2023/07/22 10:18:43;;;;;;;9.05;7.68;;;;;;;;;;5113417;28;20090;-81
2023/07/22 10:21:09;;;;;;;8.30;7.32;;;;;;;;;;5113693;28;20052;-81
2023/07/22 10:23:35;;;;;;;7.78;7.07;;;;;;;;;;5112992;28;20059;-82
2023/07/22 10:26:03;;;;;;;8.30;7.60;;;;;;;;;;5113415;28;20084;-82
2023/07/22 10:28:32;;;;;;;9.00;8.20;;;;;;;;;;5115126;28;20048;-82
2023/07/22 10:30:58;;;;;;;8.27;7.60;;;;;;;;;;5113862;28;20484;-81
2023/07/22 10:33:25;;;;;;;8.48;7.63;;;;;;;;;;5113322;28;20499;-81
2023/07/22 10:36:05;;;;;;;10.60;7.88;;;;;;;;;;5113285;28;20044;-81
2023/07/22 10:38:32;;;;;;;8.80;7.53;;;;;;;;;;5112926;28;20127;-81
2023/07/22 10:40:58;;;;;;;9.23;8.38;;;;;;;;;;5114069;28;20071;-81
2023/07/22 10:43:26;;;;;;;8.07;7.38;;;;;;;;;;5113010;28;20039;-80
2023/07/22 10:45:56;;;;;;;9.52;8.63;;;;;;;;;;5113042;28;20572;-80
2023/07/22 10:48:24;;;;;;;9.25;8.20;;;;;;;;;;5114055;28;20096;-81
2023/07/22 10:50:51;;;;;;;10.05;9.05;;;;;;;;;;5113630;28;20493;-81
2023/07/22 10:53:27;;;;;;;10.52;8.20;;;;;;;;;;5112737;28;20512;-82
2023/07/22 10:56:12;;;;;;;8.60;7.78;;;;;;;;;;5116478;28;20059;-82
2023/07/22 10:58:50;;;;;;;9.07;8.23;;;;;;;;;;5118249;28;20083;-82
2023/07/22 11:01:28;;;;;;;9.20;8.35;;;;;;;;;;5100473;28;20096;-82
2023/07/22 11:04:13;;;;;;;8.63;7.75;;;;;;;;;;5117322;28;20104;-82
2023/07/22 11:06:39;;;;;;;;;;;;;;;;;;5117899;28;20044;-81
2023/07/22 11:09:06;;;;;;;8.20;7.40;;;;;;;;;;5100406;28;19925;-82
2023/07/22 11:11:44;;;;;;;8.43;7.63;;;;;;;;;;5099717;28;20438;-81
2023/07/22 11:14:18;;;;;;;8.65;7.30;;;;;;;;;;5099868;28;20107;-81
2023/07/22 11:16:45;;;;;;;8.55;7.72;;;;;;;;;;5117709;28;20444;-81
2023/07/22 11:19:11;;;;;;;11.05;7.85;;;;;;;;;;5118695;28;20043;-82
2023/07/22 11:21:37;;;;;;;9.18;8.18;;;;;;;;;;5116871;28;20526;-82
2023/07/22 11:24:07;;;;;;;8.13;7.28;;;;;;;;;;5117787;28;20413;-81
2023/07/22 11:26:33;;;;;;;8.63;6.68;;;;;;;;;;5116389;28;20373;-82
2023/07/22 11:29:03;;;;;;;11.35;8.02;;;;;;;;;;5116770;28;20044;-84
2023/07/22 11:31:32;;;;;;;10.65;8.88;;;;;;;;;;5116437;28;20043;-79
2023/07/22 11:33:59;;;;;;;11.30;8.18;;;;;;;;;;5117364;28;20043;-77
2023/07/22 11:36:26;;;;;;;8.13;7.32;;;;;;;;;;5116744;28;20546;-78
2023/07/22 11:38:52;;;;;;;9.30;7.32;;;;;;;;;;5116434;28;20048;-77
2023/07/22 11:41:18;;;;;;;9.52;7.78;;;;;;;;;;5117391;28;20052;-79
2023/07/22 11:43:44;;;;;;;9.35;7.70;;;;;;;;;;5116257;28;20485;-79
2023/07/22 11:46:10;;;;;;;7.95;7.15;;;;;;;;;;5117002;28;20579;-79
2023/07/22 11:48:37;;;;;;;8.70;6.75;;;;;;;;;;5118034;28;20048;-79
2023/07/22 11:51:03;;;;;;;7.57;6.82;;;;;;;;;;5116832;28;20054;-80
2023/07/22 11:53:29;;;;;;;8.77;7.93;;;;;;;;;;5116137;28;20047;-82
2023/07/22 11:55:58;;;;;;;7.80;7.05;;;;;;;;;;5116554;28;20111;-83
2023/07/22 11:58:25;;;;;;;7.80;7.10;;;;;;;;;;5117335;28;20052;-82
2023/07/22 12:01:02;;;;;;;7.75;7.05;;;;;;;;;;5120441;28;20074;-84
2023/07/22 12:03:34;;;;;;;8.20;7.40;;;;;;;;;;5101247;28;20044;-85
2023/07/22 12:06:02;;;;;;;8.75;8.13;;;;;;;;;;5116422;28;20040;-83
2023/07/22 12:08:29;;;;;;;8.85;8.05;;;;;;;;;;5116320;28;20043;-83
2023/07/22 12:10:58;;;;;;;9.05;8.55;;;;;;;;;;5118046;28;20039;-83
2023/07/22 12:13:24;;;;;;;7.90;7.38;;;;;;;;;;5116604;28;20047;-84
2023/07/22 12:16:04;;;;;;;7.93;7.35;;;;;;;;;;5117636;28;20055;-84
2023/07/22 12:18:43;;;;;;;7.47;7.05;;;;;;;;;;5099704;28;20481;-84
2023/07/22 12:21:10;;;;;;;6.35;5.95;;;;;;;;;;5118574;28;20114;-83
2023/07/22 12:23:36;;;;;;;6.78;6.28;;;;;;;;;;5117128;28;20138;-84
2023/07/22 12:26:02;;;;;;;7.38;6.20;;;;;;;;;;5099424;28;20054;-84
2023/07/22 12:28:28;;;;;;;6.10;5.72;;;;;;;;;;5116235;28;20548;-84
2023/07/22 12:30:57;;;;;;;6.70;6.30;;;;;;;;;;5117079;28;20051;-84
2023/07/22 12:33:24;;;;;;;6.93;6.43;;;;;;;;;;5116248;28;20535;-83
2023/07/22 12:35:50;;;;;;;7.63;7.00;;;;;;;;;;5099278;28;20052;-83
2023/07/22 12:38:16;;;;;;;7.47;6.97;;;;;;;;;;5098979;28;20043;-82
2023/07/22 12:40:42;;;;;;;8.85;8.25;;;;;;;;;;5116274;28;20107;-83
2023/07/22 12:43:09;;;;;;;9.02;8.32;;;;;;;;;;5115598;28;20044;-83
2023/07/22 12:45:35;;;;;;;9.57;8.93;;;;;;;;;;5099338;28;20043;-84
2023/07/22 12:48:01;;;;;;;10.20;9.52;;;;;;;;;;5117070;28;20092;-83
2023/07/22 12:50:27;;;;;;;9.70;9.00;;;;;;;;;;5115983;28;20043;-84
2023/07/22 12:52:53;;;;;;;9.35;8.68;;;;;;;;;;5117702;28;20054;-85
2023/07/22 12:55:19;;;;;;;9.65;8.85;;;;;;;;;;5115744;28;20489;-84
2023/07/22 12:57:45;;;;;;;10.48;9.68;;;;;;;;;;5115500;28;20055;-84
2023/07/22 13:00:12;;;;;;;9.75;9.05;;;;;;;;;;5115254;28;20066;-84
2023/07/22 13:02:38;;;;;;;8.13;7.28;;;;;;;;;;5115232;28;20134;-83
2023/07/22 13:05:06;;;;;;;5.57;5.28;;;;;;;;;;5116121;28;20051;-81
2023/07/22 13:07:32;;;;;;;9.25;6.28;;;;;;;;;;5098212;28;20055;-80
2023/07/22 13:10:00;;;;;;;5.68;5.28;;;;;;;;;;5115436;28;20036;-80
2023/07/22 13:12:27;;;;;;;5.38;5.07;;;;;;;;;;5114197;28;20059;-79
2023/07/22 13:14:53;;;;;;;5.80;5.40;;;;;;;;;;5114215;28;20382;-79
2023/07/22 13:17:19;;;;;;;6.40;5.93;;;;;;;;;;5115240;28;20043;-79
2023/07/22 13:19:45;;;;;;;5.55;5.15;;;;;;;;;;5115341;28;20040;-79
2023/07/22 13:22:11;;;;;;;5.57;5.18;;;;;;;;;;5116039;28;20055;-79
2023/07/22 13:24:37;;;;;;;6.20;5.78;;;;;;;;;;5096766;28;20055;-78
2023/07/22 13:27:04;;;;;;;6.15;5.78;;;;;;;;;;5113865;28;20055;-78
2023/07/22 13:29:30;;;;;;;6.80;6.30;;;;;;;;;;5115844;28;20377;-79
2023/07/22 13:31:56;;;;;;;6.47;6.05;;;;;;;;;;5113811;28;20495;-79
2023/07/22 13:34:23;;;;;;;6.50;6.00;;;;;;;;;;5114647;28;20470;-79
2023/07/22 13:36:49;;;;;;;5.97;5.47;;;;;;;;;;5113918;28;20047;-79
2023/07/22 13:39:15;;;;;;;6.63;6.07;;;;;;;;;;5114855;28;20044;-80
2023/07/22 13:41:41;;;;;;;6.40;5.80;;;;;;;;;;5114895;28;20102;-81
2023/07/22 13:44:07;;;;;;;5.22;4.93;;;;;;;;;;5114513;28;20126;-82
2023/07/22 13:46:33;;;;;;;6.72;6.25;;;;;;;;;;5114663;28;20377;-83
2023/07/22 13:48:59;;;;;;;6.55;5.95;;;;;;;;;;5115026;28;20040;-83
2023/07/22 13:51:25;;;;;;;6.32;6.03;;;;;;;;;;5113906;28;20134;-84
2023/07/22 13:53:51;;;;;;;5.80;5.50;;;;;;;;;;5113988;28;20039;-83
2023/07/22 13:56:18;;;;;;;6.50;6.00;;;;;;;;;;5113804;28;20097;-83
2023/07/22 13:58:44;;;;;;;6.35;5.95;;;;;;;;;;5113614;28;20047;-82
2023/07/22 14:01:10;;;;;;;6.32;5.90;;;;;;;;;;5115130;28;20044;-86
2023/07/22 14:03:36;;;;;;;6.65;6.28;;;;;;;;;;5114097;28;20043;-83
2023/07/22 14:06:02;;;;;;;6.93;6.43;;;;;;;;;;5113768;28;20086;-83
2023/07/22 14:08:29;;;;;;;7.20;6.65;;;;;;;;;;5115176;28;20062;-82
2023/07/22 14:10:55;;;;;;;6.90;6.38;;;;;;;;;;5113459;28;20039;-83
2023/07/22 14:13:21;;;;;;;8.75;8.02;;;;;;;;;;5096625;28;20040;-82
2023/07/22 14:15:47;;;;;;;8.35;7.68;;;;;;;;;;5113296;28;20051;-83
2023/07/22 14:18:17;;;;;;;9.32;8.50;;;;;;;;;;5113305;28;20485;-82
2023/07/22 14:20:45;;;;;;;9.77;8.93;;;;;;;;;;5114519;28;20530;-82
2023/07/22 14:23:11;;;;;;;10.23;9.38;;;;;;;;;;5112974;28;20066;-82
2023/07/22 14:25:37;;;;;;;10.55;9.68;;;;;;;;;;5113016;28;20122;-83
2023/07/22 14:28:03;;;;;;;11.25;10.10;;;;;;;;;;5113262;28;20051;-83
2023/07/22 14:30:29;;;;;;;11.70;10.50;;;;;;;;;;5112578;28;20505;-83
2023/07/22 14:32:55;;;;;;;11.82;10.77;;;;;;;;;;5096327;28;20511;-83